createdAt,value
2022-10-02T00:02:13.093Z,20.69
2022-10-02T00:04:40.084Z,20.63
2022-10-02T00:07:07.069Z,20.63
2022-10-02T00:09:33.963Z,20.63
2022-10-02T00:12:00.894Z,20.56
2022-10-02T00:14:27.820Z,20.56
2022-10-02T00:16:54.756Z,20.56
2022-10-02T00:19:21.703Z,20.50
2022-10-02T00:21:48.625Z,20.50
2022-10-02T00:24:15.518Z,20.44
2022-10-02T00:26:42.473Z,20.44
2022-10-02T00:29:09.391Z,20.44
2022-10-02T00:31:36.329Z,20.38
2022-10-02T00:34:03.264Z,20.38
2022-10-02T00:36:30.168Z,20.38
2022-10-02T00:38:57.079Z,20.31
2022-10-02T00:41:23.989Z,20.31
2022-10-02T00:43:50.895Z,20.31
2022-10-02T00:46:17.858Z,20.25
2022-10-02T00:48:44.811Z,20.25
2022-10-02T00:51:11.731Z,20.19
2022-10-02T00:53:38.644Z,20.19
2022-10-02T00:56:05.568Z,20.19
2022-10-02T00:58:32.499Z,20.13
2022-10-02T01:00:59.470Z,20.13
2022-10-02T01:03:26.457Z,20.06
2022-10-02T01:05:53.382Z,20.06
2022-10-02T01:08:20.277Z,20.06
2022-10-02T01:10:47.201Z,20.00
2022-10-02T01:13:14.150Z,20.00
2022-10-02T01:15:41.064Z,20.00
2022-10-02T01:18:07.990Z,19.94
2022-10-02T01:20:34.950Z,19.94
2022-10-02T01:23:01.863Z,19.88
2022-10-02T01:25:28.762Z,19.88
2022-10-02T01:27:55.718Z,19.88
2022-10-02T01:30:22.644Z,19.88
2022-10-02T01:32:49.551Z,19.81
2022-10-02T01:35:16.495Z,19.81
2022-10-02T01:37:43.432Z,19.81
2022-10-02T01:40:10.353Z,19.75
2022-10-02T01:42:37.258Z,19.75
2022-10-02T01:45:04.156Z,19.75
2022-10-02T01:47:31.063Z,19.75
2022-10-02T01:49:57.966Z,19.69
2022-10-02T01:52:24.871Z,19.69
2022-10-02T01:54:51.795Z,19.69
2022-10-02T01:57:18.719Z,19.69
2022-10-02T01:59:45.647Z,19.69
2022-10-02T02:02:12.615Z,19.63
2022-10-02T02:04:39.552Z,19.63
2022-10-02T02:07:06.516Z,19.63
2022-10-02T02:09:33.450Z,19.56
2022-10-02T02:12:00.361Z,19.56
2022-10-02T02:14:27.274Z,19.56
2022-10-02T02:16:54.293Z,19.56
2022-10-02T02:19:21.256Z,19.50
2022-10-02T02:21:48.144Z,19.50
2022-10-02T02:24:15.095Z,19.50
2022-10-02T02:26:42.015Z,19.50
2022-10-02T02:29:08.953Z,19.50
2022-10-02T02:31:35.926Z,19.44
2022-10-02T02:34:02.908Z,19.44
2022-10-02T02:36:29.838Z,19.44
2022-10-02T02:38:56.765Z,19.44
2022-10-02T02:41:23.662Z,19.38
2022-10-02T02:43:50.566Z,19.38
2022-10-02T02:46:17.463Z,19.38
2022-10-02T02:48:44.376Z,19.38
2022-10-02T02:51:11.276Z,19.38
2022-10-02T02:53:38.208Z,19.31
2022-10-02T02:56:05.106Z,19.31
2022-10-02T02:58:32.001Z,19.31
2022-10-02T03:00:59.020Z,19.31
2022-10-02T03:03:25.974Z,19.25
2022-10-02T03:05:52.902Z,19.25
2022-10-02T03:08:19.813Z,19.25
2022-10-02T03:10:46.778Z,19.25
2022-10-02T03:13:13.705Z,19.19
2022-10-02T03:15:40.670Z,19.19
2022-10-02T03:18:07.576Z,19.19
2022-10-02T03:20:34.488Z,19.19
2022-10-02T03:23:01.393Z,19.19
2022-10-02T03:25:28.332Z,19.19
2022-10-02T03:27:55.334Z,19.13
2022-10-02T03:30:22.247Z,19.13
2022-10-02T03:32:49.147Z,19.13
2022-10-02T03:35:16.056Z,19.13
2022-10-02T03:37:43.116Z,19.13
2022-10-02T03:40:10.023Z,19.06
2022-10-02T03:42:36.914Z,19.06
2022-10-02T03:45:03.815Z,19.06
2022-10-02T03:47:30.715Z,19.06
2022-10-02T03:49:57.620Z,19.06
2022-10-02T03:52:24.540Z,19.06
2022-10-02T03:54:51.455Z,19.06
2022-10-02T03:57:18.356Z,19.00
2022-10-02T03:59:45.356Z,19.00
2022-10-02T04:02:12.255Z,19.00
2022-10-02T04:04:39.174Z,19.00
2022-10-02T04:07:06.083Z,19.00
2022-10-02T04:09:32.978Z,19.00
2022-10-02T04:11:59.953Z,19.00
2022-10-02T04:14:26.902Z,19.00
2022-10-02T04:16:53.806Z,18.94
2022-10-02T04:19:20.725Z,18.94
2022-10-02T04:21:47.674Z,18.94
2022-10-02T04:24:14.580Z,18.94
2022-10-02T04:26:41.512Z,18.94
2022-10-02T04:29:08.422Z,18.94
2022-10-02T04:31:35.392Z,18.88
2022-10-02T04:34:02.338Z,18.88
2022-10-02T04:36:29.269Z,18.88
2022-10-02T04:38:56.191Z,18.88
2022-10-02T04:41:23.119Z,18.88
2022-10-02T04:43:50.055Z,18.81
2022-10-02T04:46:17.028Z,18.88
2022-10-02T04:48:43.973Z,18.81
2022-10-02T04:51:10.899Z,18.81
2022-10-02T04:53:37.791Z,18.81
2022-10-02T04:56:04.717Z,18.81
2022-10-02T04:58:31.638Z,18.81
2022-10-02T05:00:58.605Z,18.81
2022-10-02T05:03:25.542Z,18.75
2022-10-02T05:05:52.469Z,18.75
2022-10-02T05:08:19.371Z,18.75
2022-10-02T05:10:46.287Z,18.75
2022-10-02T05:13:13.196Z,18.75
2022-10-02T05:15:40.106Z,18.75
2022-10-02T05:18:07.035Z,18.75
2022-10-02T05:20:33.940Z,18.75
2022-10-02T05:23:00.875Z,18.75
2022-10-02T05:25:28.062Z,18.75
2022-10-02T05:27:55.098Z,18.75
2022-10-02T05:30:22.021Z,18.75
2022-10-02T05:32:48.906Z,18.75
2022-10-02T05:35:15.841Z,18.69
2022-10-02T05:37:42.757Z,18.69
2022-10-02T05:40:09.667Z,18.69
2022-10-02T05:42:40.032Z,18.69
2022-10-02T05:45:09.776Z,18.69
2022-10-02T05:47:36.693Z,18.69
2022-10-02T05:50:03.644Z,18.63
2022-10-02T05:52:30.566Z,18.63
2022-10-02T05:54:57.491Z,18.63
2022-10-02T05:57:24.406Z,18.63
2022-10-02T05:59:51.333Z,18.63
2022-10-02T06:02:18.327Z,18.63
2022-10-02T06:04:45.291Z,18.63
2022-10-02T06:07:12.221Z,18.63
2022-10-02T06:09:39.113Z,18.56
2022-10-02T06:12:06.035Z,18.56
2022-10-02T06:14:32.936Z,18.56
2022-10-02T06:16:59.911Z,18.56
2022-10-02T06:19:26.826Z,18.56
2022-10-02T06:21:53.736Z,18.56
2022-10-02T06:24:20.664Z,18.50
2022-10-02T06:26:47.565Z,18.56
2022-10-02T06:29:18.326Z,18.50
2022-10-02T06:31:46.777Z,18.50
2022-10-02T06:34:13.750Z,18.50
2022-10-02T06:36:40.646Z,18.56
2022-10-02T06:39:07.543Z,18.56
2022-10-02T06:41:34.472Z,18.63
2022-10-02T06:44:01.407Z,18.63
2022-10-02T06:46:28.310Z,18.63
2022-10-02T06:48:55.217Z,18.63
2022-10-02T06:51:22.139Z,18.63
2022-10-02T06:53:49.045Z,18.56
2022-10-02T06:56:15.983Z,18.56
2022-10-02T06:58:42.901Z,18.50
2022-10-02T07:01:09.911Z,18.50
2022-10-02T07:03:36.865Z,18.50
2022-10-02T07:06:03.804Z,18.50
2022-10-02T07:08:30.748Z,18.50
2022-10-02T07:10:57.670Z,21.75
2022-10-02T07:13:24.583Z,25.38
2022-10-02T07:15:51.484Z,27.38
2022-10-02T07:18:18.386Z,28.06
2022-10-02T07:20:45.280Z,28.50
2022-10-02T07:23:12.209Z,29.44
2022-10-02T07:25:39.104Z,29.69
2022-10-02T07:28:06.155Z,29.94
2022-10-02T07:30:33.127Z,30.81
2022-10-02T07:33:01.144Z,31.13
2022-10-02T07:35:28.053Z,31.38
2022-10-02T07:37:55.005Z,32.13
2022-10-02T07:40:21.899Z,32.31
2022-10-02T07:42:48.836Z,32.50
2022-10-02T07:45:15.775Z,33.19
2022-10-02T07:47:42.687Z,33.38
2022-10-02T07:50:09.611Z,33.69
2022-10-02T07:52:36.530Z,34.31
2022-10-02T07:55:03.434Z,34.44
2022-10-02T07:57:30.339Z,34.63
2022-10-02T07:59:57.255Z,35.31
2022-10-02T08:02:24.222Z,35.44
2022-10-02T08:04:51.175Z,35.50
2022-10-02T08:07:18.087Z,36.13
2022-10-02T08:09:45.036Z,36.31
2022-10-02T08:12:11.952Z,36.50
2022-10-02T08:14:38.922Z,36.69
2022-10-02T08:17:05.828Z,36.88
2022-10-02T08:19:32.743Z,37.50
2022-10-02T08:21:59.651Z,37.63
2022-10-02T08:24:26.559Z,37.81
2022-10-02T08:26:53.495Z,38.06
2022-10-02T08:29:20.440Z,38.25
2022-10-02T08:31:47.455Z,38.50
2022-10-02T08:34:14.406Z,38.75
2022-10-02T08:36:41.310Z,38.94
2022-10-02T08:39:08.257Z,39.19
2022-10-02T08:41:35.170Z,39.38
2022-10-02T08:44:02.075Z,39.63
2022-10-02T08:46:28.987Z,39.81
2022-10-02T08:48:55.908Z,40.06
2022-10-02T08:51:22.848Z,40.31
2022-10-02T08:53:49.796Z,40.50
2022-10-02T08:56:20.134Z,40.63
2022-10-02T08:58:47.378Z,40.81
2022-10-02T09:01:14.367Z,41.00
2022-10-02T09:03:41.319Z,41.19
2022-10-02T09:06:08.223Z,41.44
2022-10-02T09:08:35.156Z,41.56
2022-10-02T09:11:02.049Z,41.75
2022-10-02T09:13:28.973Z,41.88
2022-10-02T09:15:55.999Z,42.06
2022-10-02T09:18:22.968Z,42.19
2022-10-02T09:20:49.918Z,42.38
2022-10-02T09:23:16.829Z,42.56
2022-10-02T09:25:43.740Z,42.75
2022-10-02T09:28:10.759Z,42.88
2022-10-02T09:30:37.741Z,43.06
2022-10-02T09:33:04.653Z,43.25
2022-10-02T09:35:31.567Z,43.38
2022-10-02T09:37:58.495Z,43.56
2022-10-02T09:40:25.425Z,43.69
2022-10-02T09:42:52.321Z,43.88
2022-10-02T09:45:19.257Z,44.06
2022-10-02T09:47:46.183Z,44.19
2022-10-02T09:50:13.149Z,44.38
2022-10-02T09:52:42.786Z,44.50
2022-10-02T09:55:09.901Z,44.63
2022-10-02T09:57:36.863Z,44.88
2022-10-02T10:00:03.771Z,45.00
2022-10-02T10:02:30.720Z,45.19
2022-10-02T10:05:06.460Z,45.38
2022-10-02T10:07:33.791Z,45.56
2022-10-02T10:10:00.732Z,45.69
2022-10-02T10:12:27.644Z,45.88
2022-10-02T10:14:54.551Z,46.00
2022-10-02T10:17:21.497Z,46.13
2022-10-02T10:19:48.409Z,46.19
2022-10-02T10:22:15.359Z,46.38
2022-10-02T10:24:42.259Z,46.44
2022-10-02T10:27:09.174Z,46.50
2022-10-02T10:29:36.096Z,46.69
2022-10-02T10:32:03.040Z,46.81
2022-10-02T10:34:29.973Z,46.94
2022-10-02T10:36:56.877Z,47.00
2022-10-02T10:39:23.819Z,47.13
2022-10-02T10:41:50.725Z,47.19
2022-10-02T10:44:17.642Z,47.25
2022-10-02T10:46:44.561Z,47.31
2022-10-02T10:49:11.465Z,47.38
2022-10-02T10:51:38.637Z,47.44
2022-10-02T10:54:06.014Z,47.44
2022-10-02T10:56:32.907Z,47.50
2022-10-02T10:58:59.861Z,47.56
2022-10-02T11:01:26.806Z,47.63
2022-10-02T11:03:53.775Z,47.69
2022-10-02T11:06:20.684Z,47.75
2022-10-02T11:08:47.603Z,47.88
2022-10-02T11:11:14.514Z,47.88
2022-10-02T11:13:41.436Z,47.88
2022-10-02T11:16:08.403Z,47.81
2022-10-02T11:18:35.392Z,47.75
2022-10-02T11:21:02.295Z,47.75
2022-10-02T11:23:29.211Z,47.75
2022-10-02T11:25:56.137Z,47.75
2022-10-02T11:28:23.065Z,47.81
2022-10-02T11:30:50.030Z,47.81
2022-10-02T11:33:16.952Z,47.81
2022-10-02T11:35:43.883Z,47.81
2022-10-02T11:38:10.843Z,47.75
2022-10-02T11:40:37.756Z,47.69
2022-10-02T11:43:04.680Z,47.75
2022-10-02T11:45:31.677Z,47.81
2022-10-02T11:47:58.618Z,47.81
2022-10-02T11:50:25.581Z,47.88
2022-10-02T11:52:52.506Z,47.88
2022-10-02T11:55:19.581Z,47.88
2022-10-02T11:57:46.482Z,47.94
2022-10-02T12:00:13.401Z,47.94
2022-10-02T12:02:40.382Z,47.94
2022-10-02T12:05:07.365Z,47.94
2022-10-02T12:07:34.289Z,48.00
2022-10-02T12:10:01.195Z,48.06
2022-10-02T12:12:28.182Z,48.06
2022-10-02T12:14:55.113Z,48.00
2022-10-02T12:17:22.023Z,48.06
2022-10-02T12:19:48.976Z,48.06
2022-10-02T12:22:15.886Z,48.13
2022-10-02T12:24:42.836Z,48.06
2022-10-02T12:27:09.804Z,48.06
2022-10-02T12:29:36.797Z,48.06
2022-10-02T12:32:03.820Z,48.06
2022-10-02T12:34:30.781Z,48.06
2022-10-02T12:36:57.673Z,48.06
2022-10-02T12:39:24.608Z,48.13
2022-10-02T12:41:51.512Z,48.13
2022-10-02T12:44:18.448Z,48.13
2022-10-02T12:46:45.423Z,48.19
2022-10-02T12:49:12.358Z,48.19
2022-10-02T12:51:39.595Z,48.19
2022-10-02T12:54:06.829Z,48.19
2022-10-02T12:56:33.743Z,48.19
2022-10-02T12:59:00.661Z,48.25
2022-10-02T13:01:27.692Z,48.38
2022-10-02T13:03:54.628Z,48.38
2022-10-02T13:06:21.542Z,48.38
2022-10-02T13:08:48.474Z,48.38
2022-10-02T13:11:15.395Z,48.38
2022-10-02T13:13:42.318Z,48.31
2022-10-02T13:16:09.234Z,48.38
2022-10-02T13:18:36.208Z,48.44
2022-10-02T13:21:03.129Z,48.50
2022-10-02T13:23:30.087Z,48.44
2022-10-02T13:25:56.998Z,48.44
2022-10-02T13:28:23.976Z,48.44
2022-10-02T13:30:50.969Z,48.38
2022-10-02T13:33:17.863Z,48.38
2022-10-02T13:35:44.785Z,48.38
2022-10-02T13:38:11.713Z,48.44
2022-10-02T13:40:38.639Z,48.44
2022-10-02T13:43:05.587Z,48.50
2022-10-02T13:45:32.549Z,48.56
2022-10-02T13:47:59.507Z,48.63
2022-10-02T13:50:26.425Z,48.63
2022-10-02T13:52:53.397Z,48.63
2022-10-02T13:55:20.303Z,48.69
2022-10-02T13:57:47.344Z,48.63
2022-10-02T14:00:14.265Z,48.63
2022-10-02T14:02:41.237Z,48.63
2022-10-02T14:05:08.149Z,48.63
2022-10-02T14:07:35.068Z,48.63
2022-10-02T14:10:01.988Z,48.63
2022-10-02T14:12:28.909Z,48.63
2022-10-02T14:14:55.792Z,48.63
2022-10-02T14:17:22.699Z,48.63
2022-10-02T14:19:49.617Z,48.56
2022-10-02T14:22:16.557Z,48.56
2022-10-02T14:24:43.467Z,48.50
2022-10-02T14:27:10.404Z,48.50
2022-10-02T14:29:37.379Z,48.50
2022-10-02T14:32:04.279Z,48.50
2022-10-02T14:34:31.190Z,48.50
2022-10-02T14:36:58.071Z,48.50
2022-10-02T14:39:24.971Z,48.50
2022-10-02T14:41:51.889Z,48.50
2022-10-02T14:44:18.803Z,48.50
2022-10-02T14:46:45.713Z,48.56
2022-10-02T14:49:12.628Z,48.63
2022-10-02T14:51:39.792Z,48.69
2022-10-02T14:54:06.898Z,48.69
2022-10-02T14:56:33.803Z,48.69
2022-10-02T14:59:00.730Z,48.75
2022-10-02T15:01:27.664Z,48.75
2022-10-02T15:03:54.694Z,48.75
2022-10-02T15:06:21.655Z,48.81
2022-10-02T15:08:48.553Z,48.81
2022-10-02T15:11:15.476Z,48.81
2022-10-02T15:13:42.402Z,48.81
2022-10-02T15:16:09.351Z,48.75
2022-10-02T15:18:38.369Z,48.69
2022-10-02T15:21:05.487Z,48.69
2022-10-02T15:23:32.408Z,48.69
2022-10-02T15:25:59.323Z,48.69
2022-10-02T15:28:36.376Z,48.63
2022-10-02T15:31:04.011Z,48.56
2022-10-02T15:33:30.979Z,48.44
2022-10-02T15:35:57.874Z,48.44
2022-10-02T15:38:25.008Z,48.38
2022-10-02T15:40:51.900Z,48.31
2022-10-02T15:43:18.823Z,48.25
2022-10-02T15:45:45.857Z,48.19
2022-10-02T15:48:12.878Z,48.19
2022-10-02T15:50:39.801Z,48.19
2022-10-02T15:53:06.725Z,48.19
2022-10-02T15:55:33.670Z,48.25
2022-10-02T15:58:00.590Z,48.31
2022-10-02T16:00:27.520Z,48.31
2022-10-02T16:02:54.426Z,48.31
2022-10-02T16:05:21.389Z,48.44
2022-10-02T16:07:48.280Z,48.44
2022-10-02T16:10:15.175Z,48.50
2022-10-02T16:12:42.092Z,48.56
2022-10-02T16:15:08.994Z,48.56
2022-10-02T16:17:35.908Z,48.56
2022-10-02T16:20:02.823Z,48.50
2022-10-02T16:22:29.741Z,48.50
2022-10-02T16:24:56.634Z,48.56
2022-10-02T16:27:23.542Z,48.56
2022-10-02T16:29:50.436Z,48.63
2022-10-02T16:32:17.421Z,48.69
2022-10-02T16:34:44.326Z,48.69
2022-10-02T16:37:11.254Z,48.63
2022-10-02T16:39:38.187Z,48.56
2022-10-02T16:42:05.087Z,48.56
2022-10-02T16:44:32.010Z,48.56
2022-10-02T16:46:58.952Z,48.63
2022-10-02T16:49:25.877Z,48.69
2022-10-02T16:51:52.830Z,48.69
2022-10-02T16:54:19.765Z,48.75
2022-10-02T16:56:46.660Z,48.75
2022-10-02T16:59:13.580Z,48.88
2022-10-02T17:01:49.565Z,48.94
2022-10-02T17:04:27.386Z,48.94
2022-10-02T17:06:54.298Z,49.06
2022-10-02T17:09:21.228Z,49.19
2022-10-02T17:11:48.153Z,49.25
2022-10-02T17:14:15.070Z,49.25
2022-10-02T17:16:42.120Z,49.25
2022-10-02T17:19:09.116Z,49.25
2022-10-02T17:21:36.080Z,49.25
2022-10-02T17:24:03.016Z,49.06
2022-10-02T17:26:29.937Z,48.81
2022-10-02T17:28:56.876Z,48.69
2022-10-02T17:31:23.881Z,48.56
2022-10-02T17:33:50.850Z,48.44
2022-10-02T17:36:17.774Z,48.19
2022-10-02T17:38:44.709Z,48.06
2022-10-02T17:41:11.640Z,47.88
2022-10-02T17:43:38.563Z,47.81
2022-10-02T17:46:05.535Z,47.81
2022-10-02T17:48:32.486Z,47.94
2022-10-02T17:50:59.424Z,48.00
2022-10-02T17:53:26.342Z,48.00
2022-10-02T17:55:53.255Z,47.75
2022-10-02T17:58:20.176Z,47.50
2022-10-02T18:00:47.131Z,47.19
2022-10-02T18:03:14.111Z,46.81
2022-10-02T18:05:41.008Z,46.50
2022-10-02T18:08:08.003Z,46.13
2022-10-02T18:10:34.929Z,45.81
2022-10-02T18:13:01.842Z,45.44
2022-10-02T18:15:28.747Z,45.00
2022-10-02T18:17:55.650Z,44.63
2022-10-02T18:20:22.575Z,44.25
2022-10-02T18:22:49.480Z,43.81
2022-10-02T18:25:16.416Z,43.38
2022-10-02T18:27:43.327Z,42.94
2022-10-02T18:30:10.239Z,42.56
2022-10-02T18:32:37.253Z,42.19
2022-10-02T18:35:04.219Z,41.81
2022-10-02T18:37:31.121Z,41.38
2022-10-02T18:40:04.611Z,41.00
2022-10-02T18:42:33.719Z,40.56
2022-10-02T18:45:00.654Z,40.19
2022-10-02T18:47:27.544Z,39.75
2022-10-02T18:49:54.467Z,39.38
2022-10-02T18:52:21.387Z,39.00
2022-10-02T18:54:48.301Z,38.63
2022-10-02T18:57:15.195Z,38.25
2022-10-02T18:59:42.098Z,37.88
2022-10-02T19:02:09.035Z,37.56
2022-10-02T19:04:36.000Z,37.25
2022-10-02T19:07:02.947Z,36.94
2022-10-02T19:09:29.846Z,36.63
2022-10-02T19:11:56.732Z,36.38
2022-10-02T19:14:23.643Z,36.13
2022-10-02T19:16:50.640Z,35.88
2022-10-02T19:19:17.591Z,35.63
2022-10-02T19:21:44.508Z,35.38
2022-10-02T19:24:11.410Z,35.19
2022-10-02T19:26:38.295Z,34.94
2022-10-02T19:29:05.205Z,34.69
2022-10-02T19:31:32.156Z,34.50
2022-10-02T19:33:59.114Z,34.25
2022-10-02T19:36:26.042Z,34.00
2022-10-02T19:38:52.958Z,33.69
2022-10-02T19:41:19.849Z,33.44
2022-10-02T19:43:46.771Z,33.19
2022-10-02T19:46:13.727Z,32.88
2022-10-02T19:48:40.643Z,32.63
2022-10-02T19:51:07.558Z,32.38
2022-10-02T19:53:34.464Z,32.13
2022-10-02T19:56:01.386Z,31.88
2022-10-02T19:58:28.302Z,31.63
2022-10-02T20:00:55.271Z,31.31
2022-10-02T20:03:22.257Z,31.13
2022-10-02T20:05:49.160Z,30.88
2022-10-02T20:08:16.056Z,30.63
2022-10-02T20:10:42.955Z,30.44
2022-10-02T20:13:09.860Z,30.25
2022-10-02T20:15:36.792Z,30.06
2022-10-02T20:18:03.696Z,29.88
2022-10-02T20:20:30.588Z,29.69
2022-10-02T20:22:57.503Z,29.56
2022-10-02T20:25:24.408Z,29.38
2022-10-02T20:27:51.345Z,29.19
2022-10-02T20:30:18.283Z,29.06
2022-10-02T20:32:45.180Z,28.88
2022-10-02T20:35:12.087Z,28.75
2022-10-02T20:37:39.004Z,28.56
2022-10-02T20:40:05.908Z,28.44
2022-10-02T20:42:32.801Z,28.25
2022-10-02T20:44:59.720Z,28.13
2022-10-02T20:47:26.684Z,28.00
2022-10-02T20:49:53.584Z,27.81
2022-10-02T20:52:20.498Z,27.75
2022-10-02T20:54:47.421Z,27.63
2022-10-02T20:57:14.911Z,27.50
2022-10-02T20:59:41.981Z,27.38
2022-10-02T21:02:08.973Z,27.25
2022-10-02T21:04:35.941Z,27.13
2022-10-02T21:07:05.933Z,27.00
2022-10-02T21:09:33.963Z,26.88
2022-10-02T21:12:00.889Z,26.75
2022-10-02T21:14:27.801Z,26.63
2022-10-02T21:16:54.748Z,26.50
2022-10-02T21:19:21.669Z,26.38
2022-10-02T21:21:52.881Z,26.31
2022-10-02T21:24:20.702Z,26.19
2022-10-02T21:26:47.598Z,26.06
2022-10-02T21:29:14.500Z,26.00
2022-10-02T21:31:41.435Z,25.88
2022-10-02T21:34:08.348Z,25.75
2022-10-02T21:36:35.734Z,25.69
2022-10-02T21:39:02.927Z,25.56
2022-10-02T21:41:29.859Z,25.50
2022-10-02T21:43:56.793Z,25.38
2022-10-02T21:46:23.726Z,25.31
2022-10-02T21:48:50.647Z,25.19
2022-10-02T21:51:17.540Z,25.13
2022-10-02T21:53:44.449Z,25.06
2022-10-02T21:56:11.379Z,25.00
2022-10-02T21:58:38.306Z,24.88
2022-10-02T22:01:05.288Z,24.81
2022-10-02T22:03:32.275Z,24.69
2022-10-02T22:05:59.210Z,24.63
2022-10-02T22:08:26.151Z,24.56
2022-10-02T22:10:53.067Z,24.50
2022-10-02T22:13:19.967Z,24.44
2022-10-02T22:15:46.971Z,24.38
2022-10-02T22:18:13.966Z,24.25
2022-10-02T22:20:40.963Z,24.19
2022-10-02T22:23:07.861Z,24.13
2022-10-02T22:25:34.760Z,24.06
2022-10-02T22:28:01.758Z,24.00
2022-10-02T22:30:28.757Z,23.94
2022-10-02T22:32:55.679Z,23.88
2022-10-02T22:35:22.582Z,23.81
2022-10-02T22:37:49.507Z,23.75
2022-10-02T22:40:16.408Z,23.69
2022-10-02T22:42:43.312Z,23.63
2022-10-02T22:45:10.251Z,23.56
2022-10-02T22:47:37.147Z,23.50
2022-10-02T22:50:04.068Z,23.44
2022-10-02T22:52:30.978Z,23.38
2022-10-02T22:54:57.886Z,23.31
2022-10-02T22:57:27.811Z,23.25
2022-10-02T22:59:57.308Z,23.19
2022-10-02T23:02:24.283Z,23.13
2022-10-02T23:04:51.225Z,23.06
2022-10-02T23:07:18.135Z,23.06
2022-10-02T23:09:45.043Z,23.00
2022-10-02T23:12:11.962Z,22.88
2022-10-02T23:14:38.875Z,22.88
2022-10-02T23:17:05.793Z,22.81
2022-10-02T23:19:32.724Z,22.75
2022-10-02T23:21:59.627Z,22.69
2022-10-02T23:24:26.529Z,22.69
2022-10-02T23:26:53.468Z,22.63
2022-10-02T23:29:20.396Z,22.56
2022-10-02T23:31:47.294Z,22.50
2022-10-02T23:34:14.205Z,22.50
2022-10-02T23:36:41.125Z,22.44
2022-10-02T23:39:08.045Z,22.38
2022-10-02T23:41:34.953Z,22.31
2022-10-02T23:44:01.893Z,22.25
2022-10-02T23:46:28.843Z,22.25
2022-10-02T23:48:55.755Z,22.19
2022-10-02T23:51:22.654Z,22.13
2022-10-02T23:53:49.561Z,22.13
2022-10-02T23:56:16.470Z,22.06
2022-10-02T23:58:43.383Z,22.06
